createdAt,value
2022-11-18T00:04:44.940Z,99342.69
2022-11-18T00:09:46.700Z,99349.97
2022-11-18T00:14:48.449Z,99346.06
2022-11-18T00:19:51.562Z,99347.72
2022-11-18T00:24:53.380Z,99342.50
2022-11-18T00:29:55.200Z,99350.56
2022-11-18T00:34:58.329Z,99348.31
2022-11-18T00:40:00.054Z,99359.44
2022-11-18T00:45:01.791Z,99367.84
2022-11-18T00:50:05.859Z,99371.97
2022-11-18T00:55:08.428Z,99372.97
2022-11-18T01:00:10.783Z,99374.94
2022-11-18T01:05:13.894Z,99381.03
2022-11-18T01:10:16.418Z,99368.69
2022-11-18T01:15:18.170Z,99376.16
2022-11-18T01:20:21.278Z,99375.31
2022-11-18T01:25:23.043Z,99379.84
2022-11-18T01:30:24.832Z,99375.69
2022-11-18T01:35:28.066Z,99380.94
2022-11-18T01:40:29.804Z,99381.06
2022-11-18T01:45:33.191Z,99388.00
2022-11-18T01:50:38.487Z,99389.88
2022-11-18T01:55:41.943Z,99395.84
2022-11-18T02:00:43.688Z,99405.97
2022-11-18T02:05:47.260Z,99409.28
2022-11-18T02:10:49.037Z,99404.81
2022-11-18T02:15:58.938Z,99416.13
2022-11-18T02:21:08.533Z,99419.84
2022-11-18T02:26:42.166Z,99423.47
2022-11-18T02:31:48.191Z,99434.16
2022-11-18T02:36:52.955Z,99425.59
2022-11-18T02:41:54.727Z,99424.84
2022-11-18T02:46:59.851Z,99431.28
2022-11-18T02:52:01.769Z,99424.44
2022-11-18T02:57:03.785Z,99430.44
2022-11-18T03:02:06.917Z,99432.69
2022-11-18T03:07:11.407Z,99444.63
2022-11-18T03:12:17.559Z,99450.41
2022-11-18T03:17:23.412Z,99455.00
2022-11-18T03:22:27.857Z,99459.66
2022-11-18T03:27:31.313Z,99455.34
2022-11-18T03:32:37.268Z,99471.81
2022-11-18T03:37:39.036Z,99486.84
2022-11-18T03:42:41.598Z,99486.25
2022-11-18T03:47:46.178Z,99489.09
2022-11-18T03:52:48.236Z,99494.91
2022-11-18T03:57:52.054Z,99497.19
2022-11-18T04:02:55.153Z,99504.41
2022-11-18T04:07:58.437Z,99515.84
2022-11-18T04:13:06.117Z,99509.47
2022-11-18T04:18:10.009Z,99523.66
2022-11-18T04:23:11.810Z,99519.25
2022-11-18T04:28:13.531Z,99515.03
2022-11-18T04:33:16.996Z,99527.50
2022-11-18T04:38:21.950Z,99534.44
2022-11-18T04:43:24.114Z,99538.59
2022-11-18T04:48:27.301Z,99543.50
2022-11-18T04:53:29.016Z,99546.94
2022-11-18T04:58:30.772Z,99551.72
2022-11-18T05:03:33.836Z,99549.88
2022-11-18T05:08:35.664Z,99549.88
2022-11-18T05:13:37.438Z,99570.09
2022-11-18T05:18:40.531Z,99573.66
2022-11-18T05:23:42.296Z,99581.47
2022-11-18T05:28:44.034Z,99583.56
2022-11-18T05:33:47.124Z,99589.78
2022-11-18T05:38:49.040Z,99597.44
2022-11-18T05:43:50.901Z,99596.41
2022-11-18T05:48:54.038Z,99606.31
2022-11-18T05:53:55.975Z,99606.16
2022-11-18T05:58:57.747Z,99611.44
2022-11-18T06:04:01.012Z,99611.19
2022-11-18T06:09:04.119Z,99619.03
2022-11-18T06:14:07.270Z,99628.53
2022-11-18T06:19:10.369Z,99629.53
2022-11-18T06:24:12.204Z,99627.91
2022-11-18T06:29:14.749Z,99650.53
2022-11-18T06:34:18.060Z,99660.28
2022-11-18T06:39:20.126Z,99664.66
2022-11-18T06:44:22.171Z,99671.69
2022-11-18T06:49:25.866Z,99681.16
2022-11-18T06:54:27.620Z,99688.88
2022-11-18T06:59:29.330Z,99700.28
2022-11-18T07:04:34.598Z,99709.69
2022-11-18T07:09:36.767Z,99707.06
2022-11-18T07:14:38.525Z,99725.50
2022-11-18T07:19:41.609Z,99722.88
2022-11-18T07:24:43.367Z,99735.03
2022-11-18T07:29:45.142Z,99747.28
2022-11-18T07:34:48.269Z,99752.47
2022-11-18T07:39:50.035Z,99754.22
2022-11-18T07:44:51.826Z,99757.72
2022-11-18T07:49:54.915Z,99763.78
2022-11-18T07:54:56.659Z,99771.66
2022-11-18T07:59:58.399Z,99780.34
2022-11-18T08:05:01.545Z,99780.31
2022-11-18T08:10:03.714Z,99788.94
2022-11-18T08:15:06.171Z,99793.25
2022-11-18T08:20:10.706Z,99801.97
2022-11-18T08:25:12.811Z,99806.31
2022-11-18T08:30:14.664Z,99818.44
2022-11-18T08:35:17.712Z,99823.69
2022-11-18T08:40:19.497Z,99840.22
2022-11-18T08:45:21.362Z,99839.31
2022-11-18T08:50:24.520Z,99842.81
2022-11-18T08:55:26.295Z,99843.66
2022-11-18T09:00:28.027Z,99857.53
2022-11-18T09:05:31.140Z,99860.13
2022-11-18T09:10:34.402Z,99860.16
2022-11-18T09:15:36.155Z,99866.22
2022-11-18T09:20:39.237Z,99882.69
2022-11-18T09:25:40.950Z,99883.56
2022-11-18T09:30:42.764Z,99879.19
2022-11-18T09:35:45.848Z,99887.03
2022-11-18T09:40:51.124Z,99893.94
2022-11-18T09:45:54.829Z,99905.25
2022-11-18T09:50:57.998Z,99913.94
2022-11-18T09:55:59.757Z,99913.91
2022-11-18T10:01:01.626Z,99911.34
2022-11-18T10:06:11.120Z,99918.28
2022-11-18T10:11:14.531Z,99919.97
2022-11-18T10:16:28.002Z,99933.00
2022-11-18T10:21:38.462Z,99934.75
2022-11-18T10:26:41.105Z,99950.34
2022-11-18T10:31:54.237Z,99957.28
2022-11-18T10:37:02.512Z,99952.13
2022-11-18T10:42:05.579Z,99965.13
2022-11-18T10:47:16.434Z,99968.59
2022-11-18T10:52:19.709Z,99971.16
2022-11-18T10:57:22.072Z,99982.47
2022-11-18T11:02:26.912Z,99978.13
2022-11-18T11:07:32.762Z,99979.03
2022-11-18T11:12:35.389Z,99983.38
2022-11-18T11:17:39.068Z,99986.84
2022-11-18T11:22:42.829Z,99997.22
2022-11-18T11:33:22.464Z,100006.53
2022-11-18T11:38:32.873Z,100009.16
2022-11-18T11:43:37.574Z,100019.69
2022-11-18T11:48:45.688Z,100024.94
2022-11-18T11:54:02.352Z,100027.59
2022-11-18T11:59:08.981Z,100040.41
2022-11-18T12:04:19.115Z,100030.97
2022-11-18T12:09:27.012Z,100037.91
2022-11-18T12:14:33.718Z,100043.22
2022-11-18T12:19:37.895Z,100036.16
2022-11-18T12:24:42.360Z,100047.53
2022-11-18T12:29:55.217Z,100058.00
2022-11-18T12:35:00.960Z,100058.88
2022-11-18T12:40:04.781Z,100071.03
2022-11-18T12:45:39.610Z,100074.50
2022-11-18T12:50:47.852Z,100072.75
2022-11-18T12:55:50.985Z,100079.75
2022-11-18T13:01:06.147Z,100085.78
2022-11-18T13:06:14.684Z,100085.78
2022-11-18T13:11:36.573Z,100082.31
2022-11-18T13:16:57.177Z,100100.41
2022-11-18T13:22:18.266Z,100097.84
2022-11-18T13:27:28.396Z,100113.47
2022-11-18T13:32:30.229Z,100100.34
2022-11-18T13:37:34.025Z,100105.41
2022-11-18T13:42:37.091Z,100111.38
2022-11-18T13:47:41.117Z,100113.91
2022-11-18T13:52:44.432Z,100125.88
2022-11-18T13:57:48.332Z,100142.31
2022-11-18T14:02:54.550Z,100156.97
2022-11-18T14:08:01.634Z,100158.69
2022-11-18T14:13:05.243Z,100165.75
2022-11-18T14:18:17.169Z,100173.47
2022-11-18T14:23:19.063Z,100174.06
2022-11-18T14:28:23.480Z,100179.50
2022-11-18T14:33:25.432Z,100189.84
2022-11-18T14:38:52.363Z,100194.44
2022-11-18T14:44:04.379Z,100198.88
2022-11-18T14:49:09.472Z,100206.44
2022-11-18T14:54:13.064Z,100194.44
2022-11-18T14:59:17.054Z,100205.72
2022-11-18T15:04:20.791Z,100215.84
2022-11-18T15:09:23.051Z,100211.53
2022-11-18T15:14:26.392Z,100209.81
2022-11-18T15:19:28.337Z,100212.47
2022-11-18T15:24:30.140Z,100220.06
2022-11-18T15:29:33.965Z,100222.47
2022-11-18T15:34:35.754Z,100231.28
2022-11-18T15:39:37.624Z,100235.59
2022-11-18T15:44:40.655Z,100241.34
2022-11-18T15:49:45.194Z,100251.09
2022-11-18T15:54:47.102Z,100257.09
2022-11-18T15:59:50.150Z,100261.69
2022-11-18T16:04:51.941Z,100264.81
2022-11-18T16:10:12.159Z,100274.59
2022-11-18T16:15:34.870Z,100279.03
2022-11-18T16:20:36.939Z,100293.28
2022-11-18T16:25:43.523Z,100296.69
2022-11-18T16:31:07.615Z,100299.41
2022-11-18T16:36:09.410Z,100305.53
2022-11-18T16:41:30.012Z,100305.56
2022-11-18T16:46:33.833Z,100311.13
2022-11-18T16:51:35.739Z,100310.47
2022-11-18T16:56:37.590Z,100323.31
2022-11-18T17:01:40.834Z,100327.50
2022-11-18T17:06:42.677Z,100346.78
2022-11-18T17:11:44.581Z,100344.50
2022-11-18T17:17:02.386Z,100358.16
2022-11-18T17:22:14.863Z,100362.50
2022-11-18T17:27:49.310Z,100375.34
2022-11-18T17:32:56.026Z,100372.81
2022-11-18T17:37:59.007Z,100373.78
2022-11-18T17:43:05.047Z,100372.47
2022-11-18T17:48:09.009Z,100382.22
2022-11-18T17:53:20.897Z,100394.91
2022-11-18T17:58:23.885Z,100395.69
2022-11-18T18:03:26.969Z,100401.28
2022-11-18T18:09:21.856Z,100404.63
2022-11-18T18:17:13.542Z,100410.72
2022-11-18T18:22:15.275Z,100416.47
2022-11-18T18:27:17.031Z,100429.28
2022-11-18T18:32:20.219Z,100436.75
2022-11-18T18:37:22.102Z,100449.28
2022-11-18T18:42:23.835Z,100449.97
2022-11-18T18:47:26.949Z,100454.47
2022-11-18T18:52:30.755Z,100456.97
2022-11-18T18:57:32.503Z,100460.72
2022-11-18T19:02:35.718Z,100453.84
2022-11-18T19:07:37.640Z,100451.28
2022-11-18T19:12:52.218Z,100456.94
2022-11-18T19:17:55.370Z,100464.84
2022-11-18T19:22:59.170Z,100478.09
2022-11-18T19:28:00.898Z,100480.69
2022-11-18T19:33:04.318Z,100495.81
2022-11-18T19:38:06.079Z,100502.03
2022-11-18T19:43:07.794Z,100505.09
2022-11-18T19:48:10.889Z,100516.41
2022-11-18T19:53:31.228Z,100521.50
2022-11-18T19:58:33.229Z,100513.72
2022-11-18T20:03:36.405Z,100516.97
2022-11-18T20:08:38.765Z,100521.22
2022-11-18T20:13:40.858Z,100528.13
2022-11-18T20:18:44.552Z,100539.03
2022-11-18T20:23:46.458Z,100542.09
2022-11-18T20:28:53.016Z,100534.63
2022-11-18T20:34:00.229Z,100536.38
2022-11-18T20:39:03.563Z,100540.06
2022-11-18T20:44:05.743Z,100542.00
2022-11-18T20:49:09.005Z,100546.59
2022-11-18T20:54:10.865Z,100546.22
2022-11-18T20:59:12.815Z,100561.78
2022-11-18T21:04:15.928Z,100564.78
2022-11-18T21:09:17.847Z,100561.53
2022-11-18T21:14:25.571Z,100563.13
2022-11-18T21:19:29.082Z,100563.56
2022-11-18T21:24:31.787Z,100563.84
2022-11-18T21:29:33.572Z,100570.63
2022-11-18T21:34:36.731Z,100581.41
2022-11-18T21:39:38.499Z,100580.31
2022-11-18T21:44:40.240Z,100589.81
2022-11-18T21:49:43.296Z,100596.94
2022-11-18T21:54:45.066Z,100602.09
2022-11-18T21:59:46.945Z,100601.56
2022-11-18T22:04:53.062Z,100596.41
2022-11-18T22:09:55.288Z,100595.75
2022-11-18T22:14:57.161Z,100603.94
2022-11-18T22:20:00.329Z,100602.28
2022-11-18T22:25:02.096Z,100602.69
2022-11-18T22:30:04.884Z,100607.44
2022-11-18T22:35:09.418Z,100625.31
2022-11-18T22:40:12.220Z,100625.00
2022-11-18T22:45:14.150Z,100629.56
2022-11-18T22:50:17.475Z,100639.06
2022-11-18T22:55:19.233Z,100648.25
2022-11-18T23:00:21.142Z,100661.16
2022-11-18T23:05:24.277Z,100666.75
2022-11-18T23:10:26.024Z,100661.03
2022-11-18T23:15:27.992Z,100660.09
2022-11-18T23:20:31.056Z,100660.91
2022-11-18T23:25:32.866Z,100665.75
2022-11-18T23:30:34.610Z,100669.44
2022-11-18T23:35:37.754Z,100674.56
2022-11-18T23:40:39.455Z,100676.66
2022-11-18T23:45:41.915Z,100681.03
2022-11-18T23:50:52.318Z,100685.69
2022-11-18T23:55:54.073Z,100682.94
